Time;durP1;ratioP1;P1;durP2;ratioP2;P2;SDS_P1;SDS_P2;PMS_P1;PMS_P2;Temp;Humidity;BMP_temperature;BMP_pressure;BME280_temperature;BME280_humidity;BME280_pressure;Samples;Min_cycle;Max_cycle;Signal;HPM_P1;HPM_P2
2023/03/20 00:01:14;;;;;;;2.87;2.63;;;12.10;75.60;;;;;;924115;151;27504;-75
2023/03/20 00:03:40;;;;;;;2.30;2.17;;;12.10;75.90;;;;;;924150;151;27597;-75
2023/03/20 00:06:22;;;;;;;2.53;2.33;;;12.00;76.00;;;;;;921302;151;27384;-74
2023/03/20 00:08:48;;;;;;;2.87;2.63;;;12.00;76.20;;;;;;922612;151;27410;-74
2023/03/20 00:11:15;;;;;;;2.77;2.57;;;12.00;76.40;;;;;;924580;151;27480;-75
2023/03/20 00:13:42;;;;;;;2.93;2.63;;;12.00;76.50;;;;;;918945;152;27799;-74
2023/03/20 00:16:08;;;;;;;2.80;2.60;;;12.00;76.70;;;;;;902450;155;27516;-74
2023/03/20 00:18:35;;;;;;;3.17;2.77;;;12.10;76.80;;;;;;920319;151;27359;-74
2023/03/20 00:21:01;;;;;;;2.90;2.60;;;12.10;77.00;;;;;;905684;154;27484;-75
2023/03/20 00:23:28;;;;;;;2.90;2.30;;;12.10;76.90;;;;;;917993;152;27483;-74
2023/03/20 00:25:54;;;;;;;2.73;2.27;;;12.10;77.10;;;;;;920430;152;27420;-75
2023/03/20 00:28:39;;;;;;;2.50;2.30;;;12.10;77.00;;;;;;917148;152;27369;-74
2023/03/20 00:31:14;;;;;;;3.07;2.77;;;12.10;77.10;;;;;;922120;151;27364;-75
2023/03/20 00:33:41;;;;;;;2.70;2.50;;;12.10;77.00;;;;;;902576;154;27522;-75
2023/03/20 00:36:08;;;;;;;3.20;2.80;;;12.20;77.30;;;;;;903861;155;27407;-74
2023/03/20 00:38:34;;;;;;;2.97;2.50;;;12.10;77.10;;;;;;903603;155;27381;-74
2023/03/20 00:41:01;;;;;;;3.67;2.67;;;12.10;77.10;;;;;;921003;152;27468;-74
2023/03/20 00:43:28;;;;;;;2.63;2.43;;;12.20;77.30;;;;;;902705;155;27412;-74
2023/03/20 00:45:54;;;;;;;2.87;2.57;;;12.20;77.30;;;;;;919980;152;27510;-74
2023/03/20 00:48:21;;;;;;;2.57;2.40;;;12.10;77.30;;;;;;917482;152;27746;-74
2023/03/20 00:50:48;;;;;;;3.00;2.47;;;12.10;77.40;;;;;;918987;150;27437;-74
2023/03/20 00:53:14;;;;;;;2.10;2.00;;;12.10;77.50;;;;;;919015;151;27391;-74
2023/03/20 00:55:40;;;;;;;2.40;2.20;;;12.20;77.60;;;;;;918184;152;27372;-74
2023/03/20 00:58:07;;;;;;;2.30;2.10;;;12.20;77.60;;;;;;918213;151;27325;-74
2023/03/20 01:00:39;;;;;;;2.10;2.00;;;12.20;77.70;;;;;;904143;153;27354;-75
2023/03/20 01:03:21;;;;;;;2.20;2.03;;;12.20;77.80;;;;;;904143;153;27424;-75
2023/03/20 01:05:48;;;;;;;2.13;1.93;;;12.20;77.80;;;;;;906535;154;28434;-75
2023/03/20 01:08:14;;;;;;;2.37;2.17;;;12.20;77.70;;;;;;925033;151;27409;-75
2023/03/20 01:10:41;;;;;;;2.40;2.13;;;12.20;77.80;;;;;;918036;153;27364;-74
2023/03/20 01:13:07;;;;;;;2.60;2.00;;;12.20;77.90;;;;;;925140;151;27405;-74
2023/03/20 01:15:34;;;;;;;2.47;2.27;;;12.30;78.00;;;;;;910394;153;27413;-74
2023/03/20 01:18:00;;;;;;;2.23;2.00;;;12.20;77.90;;;;;;909233;153;27673;-74
2023/03/20 01:20:27;;;;;;;2.30;2.10;;;12.30;78.00;;;;;;910064;153;27341;-74
2023/03/20 01:22:54;;;;;;;1.60;1.50;;;12.30;78.00;;;;;;912253;153;27360;-74
2023/03/20 01:25:20;;;;;;;1.83;1.73;;;12.30;78.10;;;;;;926839;151;27485;-74
2023/03/20 01:27:47;;;;;;;2.07;1.90;;;12.30;78.10;;;;;;908853;153;27387;-74
2023/03/20 01:30:16;;;;;;;2.00;1.90;;;12.30;78.10;;;;;;924201;151;27344;-74
2023/03/20 01:32:45;;;;;;;1.90;1.80;;;12.30;78.20;;;;;;918597;153;27484;-74
2023/03/20 01:35:09;;;;;;;1.83;1.73;;;12.30;78.30;;;;;;911485;153;27408;-74
2023/03/20 01:37:36;;;;;;;2.40;2.17;;;12.30;78.20;;;;;;910608;153;27373;-74
2023/03/20 01:40:03;;;;;;;2.10;1.90;;;12.40;78.30;;;;;;909609;153;27481;-74
2023/03/20 01:42:29;;;;;;;2.07;1.97;;;12.40;78.30;;;;;;918404;153;27359;-74
2023/03/20 01:44:56;;;;;;;2.10;2.00;;;12.40;78.30;;;;;;909988;153;27459;-74
2023/03/20 01:47:22;;;;;;;2.13;1.93;;;12.40;78.30;;;;;;925525;150;27458;-74
2023/03/20 01:50:13;;;;;;;2.00;1.83;;;12.40;78.30;;;;;;910516;153;27868;-74
2023/03/20 01:52:40;;;;;;;2.03;1.90;;;12.40;79.00;;;;;;908993;153;27335;-74
2023/03/20 01:55:07;;;;;;;2.23;2.13;;;12.40;78.10;;;;;;926267;151;27323;-74
2023/03/20 01:57:33;;;;;;;1.60;1.50;;;12.40;78.20;;;;;;915019;153;27403;-74
2023/03/20 02:00:00;;;;;;;1.60;1.50;;;12.30;78.30;;;;;;919498;151;27408;-74
2023/03/20 02:02:26;;;;;;;1.90;1.80;;;12.30;78.40;;;;;;909548;153;27463;-74
2023/03/20 02:04:53;;;;;;;2.10;2.00;;;12.30;78.40;;;;;;910541;153;27363;-74
2023/03/20 02:07:20;;;;;;;3.00;2.10;;;12.30;78.60;;;;;;925774;151;27507;-74
2023/03/20 02:09:46;;;;;;;1.90;1.80;;;12.30;78.60;;;;;;918157;153;27459;-75
2023/03/20 02:12:13;;;;;;;1.90;1.80;;;12.30;78.80;;;;;;910213;153;27417;-75
2023/03/20 02:14:39;;;;;;;2.17;1.97;;;12.30;78.80;;;;;;926091;151;27429;-75
2023/03/20 02:17:06;;;;;;;2.03;1.80;;;12.30;78.90;;;;;;926590;151;27380;-75
2023/03/20 02:19:50;;;;;;;1.90;1.80;;;12.20;78.90;;;;;;924367;151;27415;-75
2023/03/20 02:22:26;;;;;;;2.40;2.20;;;12.30;79.00;;;;;;909054;153;27379;-76
2023/03/20 02:25:05;;;;;;;2.40;2.20;;;12.20;79.00;;;;;;910237;153;27393;-76
2023/03/20 02:27:34;;;;;;;1.87;1.77;;;12.20;79.00;;;;;;914540;153;27412;-76
2023/03/20 02:30:25;;;;;;;2.10;2.00;;;12.20;79.10;;;;;;907521;154;27389;-75
2023/03/20 02:32:55;;;;;;;4.73;2.17;;;12.10;79.20;;;;;;919944;151;27802;-76
2023/03/20 02:35:39;;;;;;;2.40;2.20;;;12.10;79.20;;;;;;925556;153;27475;-75
2023/03/20 02:38:33;;;;;;;2.30;2.10;;;12.10;79.50;;;;;;922818;153;27462;-76
2023/03/20 02:41:15;;;;;;;2.03;1.83;;;12.10;79.50;;;;;;926792;151;27386;-76
2023/03/20 02:44:00;;;;;;;2.20;2.10;;;12.10;79.60;;;;;;924650;153;27803;-76
2023/03/20 02:46:26;;;;;;;2.50;2.30;;;12.10;79.90;;;;;;909849;153;27385;-76
2023/03/20 02:49:15;;;;;;;2.00;1.90;;;12.10;80.10;;;;;;912415;153;27516;-75
2023/03/20 02:51:41;;;;;;;2.90;2.10;;;12.10;80.20;;;;;;907837;153;27447;-76
2023/03/20 02:54:10;;;;;;;2.10;2.00;;;12.10;80.30;;;;;;923471;151;27375;-75
2023/03/20 02:56:37;;;;;;;2.20;2.10;;;12.10;80.40;;;;;;923904;151;27349;-75
2023/03/20 02:59:25;;;;;;;2.37;2.10;;;12.10;80.60;;;;;;908557;153;27361;-75
2023/03/20 03:01:54;;;;;;;2.50;2.40;;;12.10;80.70;;;;;;910537;153;27531;-76
2023/03/20 03:04:26;;;;;;;2.60;2.40;;;12.10;80.60;;;;;;907613;153;27525;-76
2023/03/20 03:06:54;;;;;;;3.00;2.33;;;12.10;80.70;;;;;;926231;151;27439;-76
2023/03/20 03:09:21;;;;;;;2.37;2.27;;;12.10;80.80;;;;;;904490;153;27481;-75
2023/03/20 03:11:52;;;;;;;2.27;2.17;;;12.20;80.90;;;;;;904860;155;27433;-75
2023/03/20 03:14:43;;;;;;;2.23;2.13;;;12.20;81.00;;;;;;904737;155;27388;-75
2023/03/20 03:17:09;;;;;;;2.77;2.57;;;12.20;81.20;;;;;;916407;152;27385;-76
2023/03/20 03:19:36;;;;;;;2.80;2.60;;;12.20;80.90;;;;;;920013;152;27382;-75
2023/03/20 03:22:02;;;;;;;2.63;2.43;;;12.20;81.20;;;;;;902631;155;27405;-75
2023/03/20 03:24:35;;;;;;;2.83;2.60;;;12.20;81.30;;;;;;903829;154;27472;-75
2023/03/20 03:27:02;;;;;;;2.87;2.57;;;12.20;81.40;;;;;;911467;154;27401;-75
2023/03/20 03:29:29;;;;;;;3.30;3.00;;;12.20;81.40;;;;;;901903;153;27397;-76
2023/03/20 03:31:55;;;;;;;2.80;2.60;;;12.20;81.50;;;;;;923827;150;27508;-76
2023/03/20 03:34:21;;;;;;;3.50;3.00;;;12.30;81.60;;;;;;918725;152;27407;-75
2023/03/20 03:36:48;;;;;;;3.07;2.77;;;12.30;81.80;;;;;;903633;154;27408;-75
2023/03/20 03:39:30;;;;;;;3.40;3.10;;;12.30;81.70;;;;;;901603;155;27409;-75
2023/03/20 03:42:05;;;;;;;3.00;2.80;;;12.30;81.90;;;;;;919624;152;27513;-76
2023/03/20 03:44:40;;;;;;;3.70;3.40;;;12.30;81.80;;;;;;899651;155;27430;-75
2023/03/20 03:47:10;;;;;;;3.40;3.10;;;12.30;81.80;;;;;;903024;154;27363;-76
2023/03/20 03:49:36;;;;;;;3.70;3.40;;;12.30;81.90;;;;;;914829;151;27845;-76
2023/03/20 03:52:09;;;;;;;3.10;2.90;;;12.30;82.10;;;;;;902464;155;27401;-77
2023/03/20 03:54:40;;;;;;;3.87;3.53;;;12.30;82.10;;;;;;904124;155;27419;-76
2023/03/20 03:57:07;;;;;;;3.63;3.33;;;12.30;82.20;;;;;;901893;155;27315;-77
2023/03/20 03:59:34;;;;;;;3.60;3.30;;;12.30;82.20;;;;;;918862;152;27482;-75
2023/03/20 04:02:02;;;;;;;3.70;3.40;;;12.40;81.60;;;;;;902087;155;27540;-75
2023/03/20 04:04:27;;;;;;;4.10;3.70;;;12.40;82.50;;;;;;918746;152;27401;-75
2023/03/20 04:06:53;;;;;;;3.67;3.37;;;12.40;82.60;;;;;;911866;154;27365;-75
2023/03/20 04:09:20;;;;;;;3.70;3.40;;;12.40;82.70;;;;;;902994;153;27440;-75
2023/03/20 04:11:47;;;;;;;3.83;3.50;;;12.40;82.80;;;;;;907625;154;27480;-75
2023/03/20 04:14:13;;;;;;;3.93;3.60;;;12.40;82.80;;;;;;908734;153;27482;-75
2023/03/20 04:16:41;;;;;;;3.87;2.93;;;12.40;82.90;;;;;;918435;153;27376;-75
2023/03/20 04:19:06;;;;;;;3.53;3.23;;;12.40;82.90;;;;;;909358;153;27481;-75
2023/03/20 04:21:33;;;;;;;3.60;3.30;;;12.40;82.90;;;;;;908068;153;27428;-75
2023/03/20 04:24:00;;;;;;;3.20;3.00;;;12.40;83.10;;;;;;925573;151;27556;-75
2023/03/20 04:26:26;;;;;;;3.30;3.00;;;12.50;83.20;;;;;;926471;151;27355;-75
2023/03/20 04:28:53;;;;;;;3.30;3.00;;;12.50;83.20;;;;;;927739;150;27456;-75
2023/03/20 04:31:19;;;;;;;5.70;3.30;;;12.50;83.30;;;;;;927987;151;27327;-75
2023/03/20 04:33:46;;;;;;;3.50;2.93;;;12.50;83.20;;;;;;926208;151;27507;-75
2023/03/20 04:36:12;;;;;;;3.40;3.10;;;12.50;83.30;;;;;;927759;151;27459;-75
2023/03/20 04:38:39;;;;;;;3.50;3.10;;;12.50;83.30;;;;;;927778;151;27495;-75
2023/03/20 04:41:06;;;;;;;3.20;3.00;;;12.50;83.40;;;;;;925721;151;27351;-75
2023/03/20 04:43:32;;;;;;;3.40;3.10;;;12.50;83.30;;;;;;924112;151;27491;-75
2023/03/20 04:45:59;;;;;;;3.40;3.07;;;12.50;83.30;;;;;;925073;151;27370;-75
2023/03/20 04:48:26;;;;;;;3.00;2.80;;;12.50;83.40;;;;;;926576;151;27284;-75
2023/03/20 04:50:52;;;;;;;3.30;3.10;;;12.50;83.50;;;;;;926663;151;27420;-75
2023/03/20 04:53:19;;;;;;;3.60;3.00;;;12.50;83.50;;;;;;927130;151;27349;-75
2023/03/20 04:55:46;;;;;;;3.50;3.20;;;12.50;83.70;;;;;;926101;151;27423;-75
2023/03/20 04:58:12;;;;;;;3.03;2.83;;;12.50;83.90;;;;;;929178;150;27403;-75
2023/03/20 05:00:38;;;;;;;4.00;3.60;;;12.50;84.00;;;;;;913322;153;27383;-76
2023/03/20 05:03:05;;;;;;;3.23;2.97;;;12.50;84.20;;;;;;917945;152;27449;-75
2023/03/20 05:05:32;;;;;;;4.10;3.80;;;12.60;84.30;;;;;;910387;153;27491;-75
2023/03/20 05:07:58;;;;;;;3.97;3.57;;;12.60;84.50;;;;;;905926;154;27330;-75
2023/03/20 05:10:25;;;;;;;4.03;3.63;;;12.60;84.40;;;;;;912216;153;27805;-75
2023/03/20 05:12:51;;;;;;;3.73;3.33;;;12.60;84.50;;;;;;910941;153;27501;-75
2023/03/20 05:15:18;;;;;;;4.03;3.73;;;12.70;84.60;;;;;;925913;151;27414;-75
2023/03/20 05:17:44;;;;;;;3.83;3.50;;;12.70;85.40;;;;;;924401;151;27531;-76
2023/03/20 05:20:11;;;;;;;3.97;3.53;;;12.70;84.60;;;;;;911373;153;27360;-75
2023/03/20 05:22:38;;;;;;;4.30;3.90;;;12.70;84.70;;;;;;909299;153;27409;-75
2023/03/20 05:25:04;;;;;;;4.40;4.00;;;12.80;84.80;;;;;;910647;153;27406;-75
2023/03/20 05:27:31;;;;;;;6.57;5.10;;;12.80;84.80;;;;;;918353;153;27547;-75
2023/03/20 05:29:57;;;;;;;4.97;4.47;;;12.80;84.90;;;;;;926551;151;27354;-75
2023/03/20 05:32:24;;;;;;;5.03;4.53;;;12.80;84.90;;;;;;910531;153;27376;-75
2023/03/20 05:34:51;;;;;;;6.57;5.97;;;12.90;85.00;;;;;;924200;151;27485;-75
2023/03/20 05:37:17;;;;;;;8.07;7.27;;;12.90;85.00;;;;;;926010;151;27389;-76
2023/03/20 05:39:44;;;;;;;5.67;5.17;;;12.90;85.00;;;;;;909258;153;27466;-76
2023/03/20 05:42:10;;;;;;;4.87;4.37;;;12.90;85.10;;;;;;908846;153;27460;-76
2023/03/20 05:44:37;;;;;;;4.80;4.40;;;12.90;85.10;;;;;;910813;153;27331;-76
2023/03/20 05:47:04;;;;;;;3.87;3.50;;;12.90;85.00;;;;;;918574;153;27490;-75
2023/03/20 05:49:30;;;;;;;3.60;3.30;;;13.00;85.00;;;;;;908766;153;27531;-75
2023/03/20 05:51:57;;;;;;;3.60;3.30;;;13.00;85.00;;;;;;911322;153;27453;-75
2023/03/20 05:54:23;;;;;;;4.57;3.30;;;13.00;84.90;;;;;;926079;151;27312;-75
2023/03/20 05:56:50;;;;;;;4.17;3.50;;;13.00;84.80;;;;;;928085;150;27786;-76
2023/03/20 05:59:16;;;;;;;5.83;4.10;;;13.00;84.80;;;;;;924763;151;27419;-75
2023/03/20 06:01:43;;;;;;;4.20;3.90;;;13.00;84.90;;;;;;925451;152;27288;-75
2023/03/20 06:04:10;;;;;;;3.80;3.50;;;13.00;84.90;;;;;;924442;151;27360;-75
2023/03/20 06:06:36;;;;;;;4.30;3.90;;;13.00;85.00;;;;;;925216;153;27355;-75
2023/03/20 06:09:03;;;;;;;4.47;3.63;;;13.00;85.00;;;;;;925124;151;27503;-76
2023/03/20 06:11:29;;;;;;;4.30;3.90;;;13.10;85.10;;;;;;925708;151;27386;-76
2023/03/20 06:13:57;;;;;;;4.40;4.00;;;13.10;85.20;;;;;;907189;153;27375;-76
2023/03/20 06:16:22;;;;;;;4.47;3.73;;;13.10;85.30;;;;;;923198;151;27392;-76
2023/03/20 06:18:49;;;;;;;4.67;4.13;;;13.10;85.30;;;;;;902901;155;27493;-76
2023/03/20 06:21:16;;;;;;;4.50;4.10;;;13.10;85.30;;;;;;918679;152;27388;-75
2023/03/20 06:23:42;;;;;;;5.13;3.70;;;13.10;85.40;;;;;;904004;154;27379;-75
2023/03/20 06:26:10;;;;;;;7.30;5.17;;;13.10;85.40;;;;;;910898;154;27385;-75
2023/03/20 06:28:36;;;;;;;5.53;4.20;;;13.10;85.60;;;;;;917130;152;27422;-75
2023/03/20 06:31:02;;;;;;;4.70;4.30;;;13.10;85.70;;;;;;902300;153;27441;-75
2023/03/20 06:33:29;;;;;;;4.50;4.10;;;13.10;85.90;;;;;;919100;152;27379;-75
2023/03/20 06:35:55;;;;;;;7.73;4.80;;;13.10;86.00;;;;;;904233;154;27463;-75
2023/03/20 06:38:22;;;;;;;5.17;4.67;;;13.10;86.00;;;;;;939720;148;27475;-75
2023/03/20 06:40:48;;;;;;;6.40;4.97;;;13.20;86.20;;;;;;939969;148;27359;-75
2023/03/20 06:43:15;;;;;;;6.20;5.60;;;13.20;86.40;;;;;;926601;150;27390;-75
2023/03/20 06:45:42;;;;;;;6.17;5.57;;;13.20;86.50;;;;;;918103;152;27395;-76
2023/03/20 06:48:08;;;;;;;7.07;6.37;;;13.20;86.60;;;;;;917304;152;27384;-75
2023/03/20 06:50:35;;;;;;;6.50;5.90;;;13.30;86.80;;;;;;920660;152;27437;-75
2023/03/20 06:53:01;;;;;;;10.30;7.33;;;13.30;86.90;;;;;;918664;152;27394;-75
2023/03/20 06:55:28;;;;;;;9.07;7.80;;;13.30;87.00;;;;;;917581;152;27392;-75
2023/03/20 06:57:54;;;;;;;7.87;7.07;;;13.30;87.00;;;;;;917738;152;27345;-75
2023/03/20 07:00:21;;;;;;;8.00;7.20;;;13.40;87.00;;;;;;918786;152;27430;-76
2023/03/20 07:02:48;;;;;;;8.77;7.33;;;13.40;87.00;;;;;;917708;152;27383;-75
2023/03/20 07:05:14;;;;;;;8.40;7.50;;;13.40;87.10;;;;;;919019;152;27375;-75
2023/03/20 07:07:41;;;;;;;9.43;8.43;;;13.40;87.10;;;;;;919580;152;27310;-75
2023/03/20 07:10:08;;;;;;;9.30;8.40;;;13.40;87.10;;;;;;918939;152;27404;-75
2023/03/20 07:12:34;;;;;;;10.87;8.97;;;13.40;87.30;;;;;;920974;152;27355;-76
2023/03/20 07:15:01;;;;;;;9.50;8.30;;;13.50;87.30;;;;;;918868;152;27429;-76
2023/03/20 07:17:27;;;;;;;10.87;9.43;;;13.50;87.40;;;;;;918123;152;27456;-76
2023/03/20 07:19:54;;;;;;;10.43;8.57;;;13.50;87.50;;;;;;917404;152;27391;-76
2023/03/20 07:22:21;;;;;;;12.27;9.60;;;13.60;87.70;;;;;;918568;152;27304;-76
2023/03/20 07:24:47;;;;;;;9.97;8.97;;;13.60;87.70;;;;;;920309;152;27631;-75
2023/03/20 07:27:14;;;;;;;11.43;9.10;;;13.60;87.80;;;;;;918726;152;27530;-76
2023/03/20 07:29:40;;;;;;;9.60;8.60;;;13.60;88.10;;;;;;916464;151;27462;-76
2023/03/20 07:32:07;;;;;;;9.77;8.73;;;13.70;88.30;;;;;;916677;152;27318;-76
2023/03/20 07:34:33;;;;;;;9.93;8.93;;;13.80;88.40;;;;;;918138;152;27924;-76
2023/03/20 07:37:00;;;;;;;10.63;9.53;;;13.80;88.50;;;;;;919137;152;27384;-76
2023/03/20 07:39:27;;;;;;;11.10;9.88;;;13.90;88.50;;;;;;921812;152;27377;-76
2023/03/20 07:41:53;;;;;;;12.83;10.23;;;13.90;88.70;;;;;;916993;152;27478;-76
2023/03/20 07:44:20;;;;;;;12.00;10.17;;;14.00;88.70;;;;;;917789;152;27378;-76
2023/03/20 07:46:46;;;;;;;14.50;10.83;;;14.10;88.50;;;;;;919091;152;27406;-76
2023/03/20 07:49:13;;;;;;;13.63;10.43;;;14.10;88.20;;;;;;917383;152;27339;-76
2023/03/20 07:51:39;;;;;;;13.43;11.10;;;14.20;87.90;;;;;;916270;152;27309;-76
2023/03/20 07:54:06;;;;;;;13.30;10.70;;;14.20;87.80;;;;;;917216;152;27344;-76
2023/03/20 07:56:33;;;;;;;13.50;10.63;;;14.30;87.80;;;;;;917424;152;27505;-76
2023/03/20 07:58:59;;;;;;;11.93;9.87;;;14.40;87.80;;;;;;919018;152;27437;-76
2023/03/20 08:01:26;;;;;;;11.77;10.57;;;14.40;87.60;;;;;;902780;154;27311;-76
2023/03/20 08:03:52;;;;;;;12.88;9.93;;;14.50;87.50;;;;;;921417;152;27441;-76
2023/03/20 08:06:19;;;;;;;11.28;10.08;;;14.50;87.30;;;;;;903930;153;27443;-76
2023/03/20 08:08:46;;;;;;;12.37;11.12;;;14.50;87.10;;;;;;910803;154;27419;-76
2023/03/20 08:11:12;;;;;;;13.72;10.48;;;14.60;86.90;;;;;;904278;153;27488;-76
2023/03/20 08:13:39;;;;;;;13.22;10.85;;;14.60;86.70;;;;;;906618;154;27473;-76
2023/03/20 08:16:05;;;;;;;14.57;11.73;;;14.70;86.70;;;;;;904164;153;27436;-76
2023/03/20 08:18:32;;;;;;;16.77;11.85;;;14.60;86.40;;;;;;909941;154;27765;-76
2023/03/20 08:20:59;;;;;;;20.17;13.68;;;14.70;86.30;;;;;;903629;153;27377;-76
2023/03/20 08:23:25;;;;;;;15.23;12.68;;;14.70;86.20;;;;;;902831;154;27390;-76
2023/03/20 08:25:53;;;;;;;15.25;11.88;;;14.70;86.00;;;;;;901682;155;27473;-76
2023/03/20 08:28:18;;;;;;;15.30;12.10;;;14.70;86.00;;;;;;902475;154;27434;-76
2023/03/20 08:30:45;;;;;;;14.30;11.10;;;14.70;86.30;;;;;;918431;150;27407;-77
2023/03/20 08:33:12;;;;;;;13.53;10.82;;;14.70;86.70;;;;;;903103;153;27468;-76
2023/03/20 08:35:38;;;;;;;12.03;10.40;;;14.70;87.00;;;;;;903465;155;27381;-76
2023/03/20 08:38:05;;;;;;;12.75;11.33;;;14.70;87.40;;;;;;903969;153;27477;-76
2023/03/20 08:40:31;;;;;;;12.15;10.78;;;14.70;87.60;;;;;;905323;154;27485;-76
2023/03/20 08:42:58;;;;;;;10.18;9.13;;;14.70;88.10;;;;;;921848;151;27395;-76
2023/03/20 08:45:25;;;;;;;11.70;9.48;;;14.70;88.30;;;;;;940412;148;27409;-76
2023/03/20 08:47:51;;;;;;;11.40;9.58;;;14.70;88.30;;;;;;924804;151;27356;-76
2023/03/20 08:50:18;;;;;;;12.47;9.68;;;14.80;88.30;;;;;;904671;154;27396;-76
2023/03/20 08:52:45;;;;;;;10.70;9.48;;;14.80;88.30;;;;;;922235;151;27407;-76
2023/03/20 08:55:11;;;;;;;11.43;10.25;;;14.80;88.20;;;;;;937431;148;27311;-76
2023/03/20 08:57:37;;;;;;;11.30;10.10;;;14.90;88.40;;;;;;924029;151;27386;-76
2023/03/20 09:00:05;;;;;;;10.90;9.85;;;14.90;88.30;;;;;;924547;151;27360;-76
2023/03/20 09:02:31;;;;;;;11.97;9.63;;;14.90;88.10;;;;;;921829;151;27547;-76
2023/03/20 09:04:57;;;;;;;10.28;9.00;;;15.00;88.10;;;;;;924037;151;27372;-76
2023/03/20 09:07:24;;;;;;;11.08;9.15;;;15.00;88.10;;;;;;923263;151;27365;-76
2023/03/20 09:09:50;;;;;;;9.83;8.83;;;15.10;88.00;;;;;;924465;151;27485;-76
2023/03/20 09:12:17;;;;;;;12.00;10.47;;;15.10;87.90;;;;;;921003;151;27431;-76
2023/03/20 09:14:44;;;;;;;11.45;10.05;;;15.10;87.60;;;;;;923024;151;27394;-76
2023/03/20 09:17:10;;;;;;;11.83;10.03;;;15.20;87.50;;;;;;923776;151;27387;-76
2023/03/20 09:19:38;;;;;;;10.75;9.63;;;15.20;87.30;;;;;;922544;151;27360;-76
2023/03/20 09:22:03;;;;;;;11.12;8.98;;;15.20;87.10;;;;;;923533;151;27905;-76
2023/03/20 09:24:31;;;;;;;10.78;9.03;;;15.30;86.80;;;;;;925658;151;27390;-76
2023/03/20 09:26:57;;;;;;;9.23;8.33;;;15.20;86.60;;;;;;923768;151;27380;-76
2023/03/20 09:29:23;;;;;;;10.75;9.65;;;15.20;86.50;;;;;;924328;151;27374;-76
2023/03/20 09:31:50;;;;;;;9.25;8.35;;;15.20;86.50;;;;;;925376;151;27316;-76
2023/03/20 09:34:16;;;;;;;12.18;9.45;;;15.20;87.00;;;;;;923380;151;27399;-76
2023/03/20 09:36:43;;;;;;;10.05;8.50;;;15.10;87.30;;;;;;922223;151;27832;-76
2023/03/20 09:39:10;;;;;;;10.60;9.20;;;15.10;87.80;;;;;;921354;151;27465;-76
2023/03/20 09:41:36;;;;;;;10.13;9.00;;;15.10;88.20;;;;;;923654;151;28030;-76
2023/03/20 09:44:06;;;;;;;11.22;9.30;;;15.10;89.20;;;;;;924377;151;27410;-76
2023/03/20 09:46:54;;;;;;;10.85;9.73;;;15.10;90.10;;;;;;922956;151;27418;-76
2023/03/20 09:49:29;;;;;;;11.38;9.13;;;15.10;90.50;;;;;;921382;151;27422;-76
2023/03/20 09:51:56;;;;;;;11.20;9.20;;;15.20;90.90;;;;;;922998;151;27869;-76
2023/03/20 09:54:30;;;;;;;11.40;9.30;;;15.30;91.40;;;;;;922339;151;27454;-76
2023/03/20 09:56:55;;;;;;;10.32;9.05;;;15.40;91.40;;;;;;921966;151;27519;-76
2023/03/20 09:59:22;;;;;;;10.40;9.20;;;15.50;91.40;;;;;;924816;151;27385;-76
2023/03/20 10:02:00;;;;;;;10.63;9.18;;;15.60;91.30;;;;;;923490;151;27400;-76
2023/03/20 10:04:27;;;;;;;10.95;9.13;;;15.70;91.10;;;;;;922611;151;27364;-76
2023/03/20 10:06:53;;;;;;;10.78;8.65;;;15.80;90.70;;;;;;922970;151;27398;-76
2023/03/20 10:09:26;;;;;;;10.98;9.40;;;15.90;90.50;;;;;;922408;151;27405;-76
2023/03/20 10:12:17;;;;;;;12.20;10.45;;;15.90;90.10;;;;;;924633;151;27444;-76
2023/03/20 10:15:07;;;;;;;11.40;10.20;;;15.90;89.30;;;;;;923776;151;27336;-76
2023/03/20 10:17:45;;;;;;;13.98;11.22;;;15.90;88.70;;;;;;923203;151;27387;-75
2023/03/20 10:20:30;;;;;;;16.55;11.10;;;15.90;88.40;;;;;;922750;151;27426;-75
2023/03/20 10:23:18;;;;;;;13.60;11.63;;;15.80;88.10;;;;;;924827;151;27485;-75
2023/03/20 10:25:51;;;;;;;17.12;12.00;;;15.80;87.80;;;;;;923407;151;27464;-76
2023/03/20 10:28:19;;;;;;;17.42;12.75;;;15.70;87.60;;;;;;923858;151;27374;-75
2023/03/20 10:30:49;;;;;;;17.60;12.82;;;15.70;88.10;;;;;;922467;151;27479;-75
2023/03/20 10:33:36;;;;;;;15.68;12.18;;;15.60;88.50;;;;;;903636;151;27392;-76
2023/03/20 10:36:34;;;;;;;15.23;12.18;;;15.60;89.20;;;;;;922108;151;27486;-75
2023/03/20 10:39:06;;;;;;;14.47;11.03;;;15.70;90.10;;;;;;908783;151;27371;-75
2023/03/20 10:41:32;;;;;;;14.73;11.10;;;15.70;90.20;;;;;;922456;151;27791;-75
2023/03/20 10:43:59;;;;;;;15.60;12.20;;;15.80;89.80;;;;;;923308;151;27346;-75
2023/03/20 10:46:32;;;;;;;17.20;12.23;;;15.80;89.70;;;;;;922924;151;27445;-75
2023/03/20 10:49:05;;;;;;;15.83;11.93;;;15.90;89.80;;;;;;922743;151;27411;-76
2023/03/20 10:51:36;;;;;;;16.02;12.13;;;15.90;90.00;;;;;;923962;151;27808;-75
2023/03/20 10:54:02;;;;;;;15.23;12.13;;;16.00;89.90;;;;;;922065;151;27316;-75
2023/03/20 10:56:32;;;;;;;15.40;12.05;;;16.10;90.10;;;;;;923754;151;27301;-76
2023/03/20 10:58:59;;;;;;;14.50;12.63;;;16.20;90.70;;;;;;922097;151;27524;-76
2023/03/20 11:01:25;;;;;;;14.98;12.37;;;16.30;91.20;;;;;;923631;151;27353;-76
2023/03/20 11:03:52;;;;;;;14.23;11.35;;;16.50;91.20;;;;;;921094;151;27377;-76
2023/03/20 11:06:18;;;;;;;12.82;10.78;;;16.70;90.90;;;;;;920945;151;27553;-76
2023/03/20 11:08:48;;;;;;;12.35;10.08;;;17.00;90.90;;;;;;921800;151;27550;-76
2023/03/20 11:11:14;;;;;;;13.03;11.50;;;17.30;90.90;;;;;;921749;151;27389;-76
2023/03/20 11:13:41;;;;;;;12.95;10.43;;;17.60;90.50;;;;;;921948;151;27321;-76
2023/03/20 11:16:08;;;;;;;12.95;11.08;;;17.80;88.20;;;;;;920903;151;27427;-76
2023/03/20 11:18:34;;;;;;;12.13;10.63;;;18.00;86.10;;;;;;920958;151;27416;-76
2023/03/20 11:21:01;;;;;;;11.88;10.15;;;18.20;84.20;;;;;;922850;151;27491;-76
2023/03/20 11:23:29;;;;;;;12.03;10.60;;;18.30;83.20;;;;;;922531;151;27316;-76
2023/03/20 11:25:57;;;;;;;13.98;9.53;;;18.40;82.60;;;;;;924614;151;27462;-76
2023/03/20 11:28:26;;;;;;;10.50;9.35;;;18.50;81.70;;;;;;921756;151;27394;-76
2023/03/20 11:30:59;;;;;;;11.20;9.85;;;18.50;81.00;;;;;;921578;151;27430;-76
2023/03/20 11:33:25;;;;;;;11.40;8.65;;;18.70;80.40;;;;;;922616;151;27456;-76
2023/03/20 11:35:55;;;;;;;9.85;8.40;;;18.70;80.30;;;;;;921361;151;27381;-76
2023/03/20 11:38:22;;;;;;;7.87;7.10;;;18.90;80.10;;;;;;921957;151;27450;-76
2023/03/20 11:40:48;;;;;;;7.33;6.35;;;19.10;79.60;;;;;;920222;151;27408;-76
2023/03/20 11:43:15;;;;;;;7.62;6.22;;;19.20;78.70;;;;;;923032;151;27437;-76
2023/03/20 11:45:44;;;;;;;6.92;6.12;;;19.40;77.40;;;;;;923907;151;27448;-76
2023/03/20 11:48:19;;;;;;;7.30;6.05;;;19.50;76.50;;;;;;921022;151;27396;-76
2023/03/20 11:50:45;;;;;;;8.25;6.15;;;19.70;75.30;;;;;;923035;151;27407;-76
2023/03/20 11:53:30;;;;;;;8.23;6.20;;;19.80;73.70;;;;;;923545;151;27435;-75
2023/03/20 11:56:05;;;;;;;7.25;6.55;;;19.80;72.70;;;;;;923553;151;27442;-75
2023/03/20 11:58:32;;;;;;;7.35;6.22;;;19.80;71.90;;;;;;922802;151;27497;-76
2023/03/20 12:00:58;;;;;;;7.78;5.58;;;19.80;71.70;;;;;;923055;151;27427;-76
2023/03/20 12:03:44;;;;;;;6.58;5.87;;;19.80;71.30;;;;;;925041;151;27726;-76
2023/03/20 12:06:13;;;;;;;7.15;6.08;;;19.80;71.30;;;;;;923115;151;27324;-76
2023/03/20 12:08:40;;;;;;;6.95;6.17;;;19.80;71.80;;;;;;924067;151;27417;-76
2023/03/20 12:11:06;;;;;;;6.45;5.80;;;19.80;71.70;;;;;;921995;151;27419;-76
2023/03/20 12:13:33;;;;;;;5.70;5.10;;;19.80;71.60;;;;;;919750;151;27382;-76
2023/03/20 12:16:02;;;;;;;6.05;5.45;;;19.90;70.80;;;;;;923239;151;27353;-76
2023/03/20 12:18:34;;;;;;;5.58;4.97;;;19.90;70.30;;;;;;924415;151;27376;-76
2023/03/20 12:21:13;;;;;;;4.80;4.40;;;20.00;70.10;;;;;;923642;151;27584;-76
2023/03/20 12:23:39;;;;;;;5.97;4.50;;;20.00;69.70;;;;;;923596;151;27390;-76
2023/03/20 12:26:08;;;;;;;5.37;4.87;;;20.10;69.60;;;;;;921505;151;27436;-75
2023/03/20 12:28:41;;;;;;;6.05;5.45;;;20.10;69.20;;;;;;923162;151;27505;-76
2023/03/20 12:31:07;;;;;;;5.50;5.00;;;20.10;69.10;;;;;;922704;151;27318;-76
2023/03/20 12:33:35;;;;;;;4.83;4.10;;;20.20;68.70;;;;;;922481;151;27364;-76
2023/03/20 12:36:00;;;;;;;5.60;4.62;;;20.20;68.60;;;;;;920835;152;27436;-76
2023/03/20 12:38:27;;;;;;;5.33;4.83;;;20.20;68.20;;;;;;903318;155;27461;-76
2023/03/20 12:41:02;;;;;;;5.25;4.08;;;20.20;68.00;;;;;;904243;152;27365;-76
2023/03/20 12:43:29;;;;;;;5.00;4.53;;;20.20;67.80;;;;;;900951;155;27479;-76
2023/03/20 12:46:01;;;;;;;4.20;3.90;;;20.30;67.90;;;;;;902235;153;27552;-76
2023/03/20 12:48:46;;;;;;;5.90;4.78;;;20.30;67.80;;;;;;910931;154;27420;-76